METAR Data
IDs: Format: Raw Decoded Include TAF

Data at: 0647 UTC 03 Aug 2021

KMCE 030553Z AUTO 28003KT 8SM CLR 24/09 A2995 RMK AO2 SLP142 T02390094 10356 20239 52006
KMCE 030453Z AUTO 34006KT 10SM CLR 24/09 A2995 RMK AO2 SLP140 T02390089
KMCE 030353Z AUTO 33006KT 8SM CLR 26/11 A2994 RMK AO2 SLP137 T02610111
KMCE 030253Z AUTO 33007KT 4SM HZ CLR 29/11 A2993 RMK AO2 SLP136 T02940106 55004
KMCE 030153Z AUTO 34011KT 7SM CLR 33/12 A2993 RMK AO2 SLP134 T03280117
KMCE 030053Z AUTO 34012KT 10SM CLR 34/13 A2994 RMK AO2 SLP137 T03440128
KMCE 022353Z AUTO 34012KT 10SM CLR 34/12 A2995 RMK AO2 SLP140 T03440122 10356 20256 56020
KMCE 022253Z AUTO 34006KT 10SM CLR 34/11 A2997 RMK AO2 SLP147 T03390106
KMCE 022153Z AUTO 33008KT 10SM CLR 34/11 A2998 RMK AO2 SLP151 T03440106
KMCE 022053Z AUTO 31008KT 10SM CLR 33/11 A3001 RMK AO2 SLP159 T03330111 58016
KMCE 021953Z AUTO 31007KT 10SM CLR 31/12 A3003 RMK AO2 SLP167 T03110122
KMCE 021853Z AUTO 29005KT 7SM CLR 28/13 A3004 RMK AO2 SLP173 T02830133
KMCE 021753Z AUTO 31005KT 5SM HZ CLR 26/13 A3006 RMK AO2 SLP176 T02560133 10267 20156 58005
KMCE 021653Z AUTO VRB04KT 5SM HZ CLR 23/13 A3006 RMK AO2 SLP179 T02330128
KMCE 021553Z AUTO 32007KT 4SM HZ CLR 21/13 A3007 RMK AO2 SLP182 T02110128
KMCE 021453Z AUTO 34006KT 7SM CLR 19/12 A3007 RMK AO2 SLP181 T01890122 52016
KMCE 021353Z AUTO 32005KT 7SM CLR 16/13 A3005 RMK AO2 SLP176 T01610128
KMCE 021253Z AUTO 32005KT 10SM CLR 16/12 A3004 RMK AO2 SLP169 T01610122
KMCE 021153Z AUTO 32006KT 10SM CLR 17/12 A3002 RMK AO2 SLP164 T01670122 10244 20167 53008
KMCE 021053Z AUTO 33005KT 10SM CLR 17/12 A3001 RMK AO2 SLP161 T01720122
KMCE 020953Z AUTO 33007KT 10SM CLR 18/12 A3000 RMK AO2 SLP158 T01830122
KMCE 020853Z AUTO 34010KT 10SM CLR 20/12 A3000 RMK AO2 SLP156 T02000117 51006
KMCE 020753Z AUTO 33008KT 10SM CLR 21/12 A2999 RMK AO2 SLP155 T02060117 403830178
KMCE 020653Z AUTO 31007KT 10SM CLR 22/12 A2999 RMK AO2 SLP155 T02220117
KMCE 020553Z AUTO 31009KT 10SM CLR 24/12 A2998 RMK AO2 SLP150 T02440122 10378 20244 51019
KMCE 020453Z AUTO 34009KT 10SM CLR 27/14 A2997 RMK AO2 SLP145 T02720139
KMCE 020353Z AUTO 34011KT 10SM CLR 29/13 A2994 RMK AO2 SLP137 T02940128
KMCE 020253Z AUTO 33008KT 10SM CLR 31/13 A2992 RMK AO2 SLP131 T03110133 53004
KMCE 020153Z AUTO 34010KT 10SM CLR 34/14 A2991 RMK AO2 SLP125 T03440144
KMCE 020053Z AUTO 33011KT 10SM CLR 37/14 A2991 RMK AO2 SLP126 T03670144
KMCE 012353Z AUTO 31007KT 10SM CLR 38/13 A2991 RMK AO2 SLP127 T03780128 10383 20294 56016
KMCE 012253Z AUTO 25008KT 10SM CLR 37/14 A2992 RMK AO2 SLP131 T03670139
KMCE 012153Z AUTO VRB03KT 10SM CLR 37/12 A2994 RMK AO2 SLP136 T03670117
KMCE 012053Z AUTO 31006KT 10SM CLR 36/12 A2996 RMK AO2 SLP143 T03560122 58015
KMCE 011953Z AUTO 28005KT 10SM CLR 34/10 A2998 RMK AO2 SLP149 T03390100
KMCE 011853Z AUTO 32005KT 10SM CLR 32/10 A2999 RMK AO2 SLP155 T03170100